sensor_id;sensor_type;location;lat;lon;timestamp;P1;durP1;ratioP1;P2;durP2;ratioP2
16504;SDS011;8365;51.030;4.696;2023-09-30T00:00:46;11.63;;;9.43;;
16504;SDS011;8365;51.030;4.696;2023-09-30T00:03:17;11.97;;;9.10;;
16504;SDS011;8365;51.030;4.696;2023-09-30T00:05:48;10.07;;;8.90;;
16504;SDS011;8365;51.030;4.696;2023-09-30T00:08:18;11.13;;;9.20;;
16504;SDS011;8365;51.030;4.696;2023-09-30T00:10:49;10.80;;;8.47;;
16504;SDS011;8365;51.030;4.696;2023-09-30T00:13:20;12.10;;;8.87;;
16504;SDS011;8365;51.030;4.696;2023-09-30T00:15:51;9.67;;;8.67;;
16504;SDS011;8365;51.030;4.696;2023-09-30T00:18:22;11.40;;;9.67;;
16504;SDS011;8365;51.030;4.696;2023-09-30T00:20:52;11.73;;;8.70;;
16504;SDS011;8365;51.030;4.696;2023-09-30T00:23:23;9.57;;;7.93;;
16504;SDS011;8365;51.030;4.696;2023-09-30T00:25:53;12.30;;;8.97;;
16504;SDS011;8365;51.030;4.696;2023-09-30T00:28:24;11.83;;;9.00;;
16504;SDS011;8365;51.030;4.696;2023-09-30T00:30:54;12.07;;;8.53;;
16504;SDS011;8365;51.030;4.696;2023-09-30T00:33:25;11.93;;;8.87;;
16504;SDS011;8365;51.030;4.696;2023-09-30T00:35:58;10.07;;;8.90;;
16504;SDS011;8365;51.030;4.696;2023-09-30T00:38:28;14.63;;;8.87;;
16504;SDS011;8365;51.030;4.696;2023-09-30T00:40:59;10.70;;;9.20;;
16504;SDS011;8365;51.030;4.696;2023-09-30T00:43:29;10.77;;;9.37;;
16504;SDS011;8365;51.030;4.696;2023-09-30T00:46:04;12.27;;;9.43;;
16504;SDS011;8365;51.030;4.696;2023-09-30T00:48:47;11.23;;;8.60;;
16504;SDS011;8365;51.030;4.696;2023-09-30T00:51:18;8.70;;;7.17;;
16504;SDS011;8365;51.030;4.696;2023-09-30T00:53:49;11.67;;;9.30;;
16504;SDS011;8365;51.030;4.696;2023-09-30T00:56:25;11.50;;;9.10;;
16504;SDS011;8365;51.030;4.696;2023-09-30T00:58:58;12.93;;;9.20;;
16504;SDS011;8365;51.030;4.696;2023-09-30T01:01:29;11.83;;;8.90;;
16504;SDS011;8365;51.030;4.696;2023-09-30T01:04:00;11.00;;;9.03;;
16504;SDS011;8365;51.030;4.696;2023-09-30T01:06:30;10.53;;;8.97;;
16504;SDS011;8365;51.030;4.696;2023-09-30T01:09:02;9.53;;;8.50;;
16504;SDS011;8365;51.030;4.696;2023-09-30T01:11:33;9.83;;;8.70;;
16504;SDS011;8365;51.030;4.696;2023-09-30T01:14:03;10.23;;;8.67;;
16504;SDS011;8365;51.030;4.696;2023-09-30T01:16:34;9.73;;;8.20;;
16504;SDS011;8365;51.030;4.696;2023-09-30T01:19:05;10.40;;;8.03;;
16504;SDS011;8365;51.030;4.696;2023-09-30T01:21:38;11.00;;;8.73;;
16504;SDS011;8365;51.030;4.696;2023-09-30T01:24:08;8.43;;;7.63;;
16504;SDS011;8365;51.030;4.696;2023-09-30T01:26:41;12.03;;;7.67;;
16504;SDS011;8365;51.030;4.696;2023-09-30T01:29:12;8.47;;;7.57;;
16504;SDS011;8365;51.030;4.696;2023-09-30T01:31:42;9.37;;;8.47;;
16504;SDS011;8365;51.030;4.696;2023-09-30T01:34:13;8.60;;;7.80;;
16504;SDS011;8365;51.030;4.696;2023-09-30T01:36:46;9.30;;;7.37;;
16504;SDS011;8365;51.030;4.696;2023-09-30T01:39:17;8.20;;;7.40;;
16504;SDS011;8365;51.030;4.696;2023-09-30T01:41:47;9.03;;;7.77;;
16504;SDS011;8365;51.030;4.696;2023-09-30T01:44:18;8.63;;;7.73;;
16504;SDS011;8365;51.030;4.696;2023-09-30T01:46:48;11.00;;;8.00;;
16504;SDS011;8365;51.030;4.696;2023-09-30T01:49:19;9.53;;;7.93;;
16504;SDS011;8365;51.030;4.696;2023-09-30T01:51:49;9.67;;;7.27;;
16504;SDS011;8365;51.030;4.696;2023-09-30T01:54:20;7.73;;;6.93;;
16504;SDS011;8365;51.030;4.696;2023-09-30T01:56:50;8.60;;;6.83;;
16504;SDS011;8365;51.030;4.696;2023-09-30T01:59:21;7.13;;;6.30;;
16504;SDS011;8365;51.030;4.696;2023-09-30T02:01:54;8.17;;;6.53;;
16504;SDS011;8365;51.030;4.696;2023-09-30T02:04:28;7.93;;;7.10;;
16504;SDS011;8365;51.030;4.696;2023-09-30T02:06:59;9.40;;;7.17;;
16504;SDS011;8365;51.030;4.696;2023-09-30T02:09:29;9.00;;;6.83;;
16504;SDS011;8365;51.030;4.696;2023-09-30T02:12:00;8.23;;;7.03;;
16504;SDS011;8365;51.030;4.696;2023-09-30T02:14:31;12.67;;;8.20;;
16504;SDS011;8365;51.030;4.696;2023-09-30T02:17:02;10.10;;;7.73;;
16504;SDS011;8365;51.030;4.696;2023-09-30T02:19:32;8.93;;;8.03;;
16504;SDS011;8365;51.030;4.696;2023-09-30T02:22:03;10.70;;;8.40;;
16504;SDS011;8365;51.030;4.696;2023-09-30T02:24:35;12.70;;;7.53;;
16504;SDS011;8365;51.030;4.696;2023-09-30T02:27:05;9.17;;;6.77;;
16504;SDS011;8365;51.030;4.696;2023-09-30T02:29:38;7.37;;;5.80;;
16504;SDS011;8365;51.030;4.696;2023-09-30T02:32:09;11.90;;;6.60;;
16504;SDS011;8365;51.030;4.696;2023-09-30T02:34:39;8.70;;;6.87;;
16504;SDS011;8365;51.030;4.696;2023-09-30T02:37:10;9.13;;;6.90;;
16504;SDS011;8365;51.030;4.696;2023-09-30T02:39:40;10.70;;;8.23;;
16504;SDS011;8365;51.030;4.696;2023-09-30T02:42:11;10.43;;;8.90;;
16504;SDS011;8365;51.030;4.696;2023-09-30T02:44:41;12.50;;;8.73;;
16504;SDS011;8365;51.030;4.696;2023-09-30T02:47:12;10.93;;;8.37;;
16504;SDS011;8365;51.030;4.696;2023-09-30T02:49:42;12.37;;;8.13;;
16504;SDS011;8365;51.030;4.696;2023-09-30T02:52:15;10.33;;;7.77;;
16504;SDS011;8365;51.030;4.696;2023-09-30T02:54:45;8.60;;;7.70;;
16504;SDS011;8365;51.030;4.696;2023-09-30T02:57:16;9.80;;;7.97;;
16504;SDS011;8365;51.030;4.696;2023-09-30T02:59:47;9.00;;;7.97;;
16504;SDS011;8365;51.030;4.696;2023-09-30T03:02:17;10.77;;;8.93;;
16504;SDS011;8365;51.030;4.696;2023-09-30T03:04:48;8.80;;;7.87;;
16504;SDS011;8365;51.030;4.696;2023-09-30T03:07:21;13.50;;;9.13;;
16504;SDS011;8365;51.030;4.696;2023-09-30T03:09:51;8.77;;;7.83;;
16504;SDS011;8365;51.030;4.696;2023-09-30T03:12:23;11.90;;;8.33;;
16504;SDS011;8365;51.030;4.696;2023-09-30T03:14:53;11.97;;;8.60;;
16504;SDS011;8365;51.030;4.696;2023-09-30T03:17:23;9.87;;;8.90;;
16504;SDS011;8365;51.030;4.696;2023-09-30T03:19:55;11.97;;;8.20;;
16504;SDS011;8365;51.030;4.696;2023-09-30T03:22:27;10.00;;;8.73;;
16504;SDS011;8365;51.030;4.696;2023-09-30T03:24:57;12.23;;;8.87;;
16504;SDS011;8365;51.030;4.696;2023-09-30T03:27:28;15.40;;;8.77;;
16504;SDS011;8365;51.030;4.696;2023-09-30T03:29:58;10.83;;;8.53;;
16504;SDS011;8365;51.030;4.696;2023-09-30T03:32:31;12.77;;;8.90;;
16504;SDS011;8365;51.030;4.696;2023-09-30T03:35:06;10.73;;;8.40;;
16504;SDS011;8365;51.030;4.696;2023-09-30T03:37:37;13.23;;;8.70;;
16504;SDS011;8365;51.030;4.696;2023-09-30T03:40:08;10.03;;;8.60;;
16504;SDS011;8365;51.030;4.696;2023-09-30T03:42:48;13.13;;;9.27;;
16504;SDS011;8365;51.030;4.696;2023-09-30T03:45:21;9.70;;;8.70;;
16504;SDS011;8365;51.030;4.696;2023-09-30T03:47:54;11.47;;;8.60;;
16504;SDS011;8365;51.030;4.696;2023-09-30T03:50:25;12.00;;;9.23;;
16504;SDS011;8365;51.030;4.696;2023-09-30T03:53:02;10.30;;;9.20;;
16504;SDS011;8365;51.030;4.696;2023-09-30T03:55:34;10.87;;;8.80;;
16504;SDS011;8365;51.030;4.696;2023-09-30T03:58:07;12.40;;;9.47;;
16504;SDS011;8365;51.030;4.696;2023-09-30T04:00:37;12.43;;;9.17;;
16504;SDS011;8365;51.030;4.696;2023-09-30T04:03:08;11.37;;;9.10;;
16504;SDS011;8365;51.030;4.696;2023-09-30T04:05:38;12.77;;;9.57;;
16504;SDS011;8365;51.030;4.696;2023-09-30T04:08:09;16.53;;;9.90;;
16504;SDS011;8365;51.030;4.696;2023-09-30T04:10:41;14.00;;;9.70;;
16504;SDS011;8365;51.030;4.696;2023-09-30T04:13:13;12.90;;;9.60;;
16504;SDS011;8365;51.030;4.696;2023-09-30T04:15:44;14.50;;;9.53;;
16504;SDS011;8365;51.030;4.696;2023-09-30T04:18:15;10.90;;;9.33;;
16504;SDS011;8365;51.030;4.696;2023-09-30T04:20:46;12.00;;;8.73;;
16504;SDS011;8365;51.030;4.696;2023-09-30T04:23:16;11.50;;;8.80;;
16504;SDS011;8365;51.030;4.696;2023-09-30T04:25:49;14.23;;;9.13;;
16504;SDS011;8365;51.030;4.696;2023-09-30T04:28:22;9.70;;;8.50;;
16504;SDS011;8365;51.030;4.696;2023-09-30T04:30:54;11.40;;;8.90;;
16504;SDS011;8365;51.030;4.696;2023-09-30T04:33:24;11.63;;;9.47;;
16504;SDS011;8365;51.030;4.696;2023-09-30T04:35:55;10.33;;;8.73;;
16504;SDS011;8365;51.030;4.696;2023-09-30T04:38:25;14.33;;;9.40;;
16504;SDS011;8365;51.030;4.696;2023-09-30T04:40:56;11.53;;;8.90;;
16504;SDS011;8365;51.030;4.696;2023-09-30T04:43:28;13.03;;;9.57;;
16504;SDS011;8365;51.030;4.696;2023-09-30T04:45:59;11.77;;;8.70;;
16504;SDS011;8365;51.030;4.696;2023-09-30T04:48:32;12.27;;;8.80;;
16504;SDS011;8365;51.030;4.696;2023-09-30T04:51:06;15.43;;;9.87;;
16504;SDS011;8365;51.030;4.696;2023-09-30T04:53:37;12.63;;;9.23;;
16504;SDS011;8365;51.030;4.696;2023-09-30T04:56:08;12.43;;;9.50;;
16504;SDS011;8365;51.030;4.696;2023-09-30T04:58:38;11.73;;;9.27;;
16504;SDS011;8365;51.030;4.696;2023-09-30T05:01:08;11.83;;;9.10;;
16504;SDS011;8365;51.030;4.696;2023-09-30T05:03:39;13.10;;;9.07;;
16504;SDS011;8365;51.030;4.696;2023-09-30T05:06:09;13.83;;;9.03;;
16504;SDS011;8365;51.030;4.696;2023-09-30T05:08:42;12.60;;;10.23;;
16504;SDS011;8365;51.030;4.696;2023-09-30T05:11:13;13.80;;;9.77;;
16504;SDS011;8365;51.030;4.696;2023-09-30T05:13:44;17.10;;;9.90;;
16504;SDS011;8365;51.030;4.696;2023-09-30T05:16:15;17.00;;;10.60;;
16504;SDS011;8365;51.030;4.696;2023-09-30T05:18:46;14.30;;;10.80;;
16504;SDS011;8365;51.030;4.696;2023-09-30T05:21:18;17.00;;;11.03;;
16504;SDS011;8365;51.030;4.696;2023-09-30T05:23:48;17.60;;;11.03;;
16504;SDS011;8365;51.030;4.696;2023-09-30T05:26:19;14.53;;;9.87;;
16504;SDS011;8365;51.030;4.696;2023-09-30T05:28:50;16.13;;;10.70;;
16504;SDS011;8365;51.030;4.696;2023-09-30T05:31:20;14.63;;;10.03;;
16504;SDS011;8365;51.030;4.696;2023-09-30T05:33:51;14.10;;;10.70;;
16504;SDS011;8365;51.030;4.696;2023-09-30T05:36:25;15.03;;;11.23;;
16504;SDS011;8365;51.030;4.696;2023-09-30T05:38:58;15.33;;;11.43;;
16504;SDS011;8365;51.030;4.696;2023-09-30T05:41:28;15.03;;;10.83;;
16504;SDS011;8365;51.030;4.696;2023-09-30T05:43:59;14.07;;;10.13;;
16504;SDS011;8365;51.030;4.696;2023-09-30T05:46:30;16.00;;;10.60;;
16504;SDS011;8365;51.030;4.696;2023-09-30T05:49:01;15.77;;;10.83;;
16504;SDS011;8365;51.030;4.696;2023-09-30T05:51:31;14.63;;;10.80;;
16504;SDS011;8365;51.030;4.696;2023-09-30T05:54:04;17.17;;;12.00;;
16504;SDS011;8365;51.030;4.696;2023-09-30T05:56:38;17.37;;;11.10;;
16504;SDS011;8365;51.030;4.696;2023-09-30T05:59:09;13.40;;;10.60;;
16504;SDS011;8365;51.030;4.696;2023-09-30T06:01:39;16.13;;;10.93;;
16504;SDS011;8365;51.030;4.696;2023-09-30T06:04:11;16.30;;;11.80;;
16504;SDS011;8365;51.030;4.696;2023-09-30T06:06:42;19.53;;;12.03;;
16504;SDS011;8365;51.030;4.696;2023-09-30T06:09:13;15.47;;;11.73;;
16504;SDS011;8365;51.030;4.696;2023-09-30T06:11:43;21.97;;;11.80;;
16504;SDS011;8365;51.030;4.696;2023-09-30T06:14:14;12.20;;;10.27;;
16504;SDS011;8365;51.030;4.696;2023-09-30T06:16:44;13.60;;;10.93;;
16504;SDS011;8365;51.030;4.696;2023-09-30T06:19:15;21.27;;;13.97;;
16504;SDS011;8365;51.030;4.696;2023-09-30T06:21:45;19.23;;;13.23;;
16504;SDS011;8365;51.030;4.696;2023-09-30T06:24:17;16.77;;;13.63;;
16504;SDS011;8365;51.030;4.696;2023-09-30T06:26:49;16.27;;;13.87;;
16504;SDS011;8365;51.030;4.696;2023-09-30T06:29:21;22.67;;;13.90;;
16504;SDS011;8365;51.030;4.696;2023-09-30T06:31:52;16.10;;;12.97;;
16504;SDS011;8365;51.030;4.696;2023-09-30T06:34:22;16.87;;;13.50;;
16504;SDS011;8365;51.030;4.696;2023-09-30T06:36:52;16.20;;;12.77;;
16504;SDS011;8365;51.030;4.696;2023-09-30T06:39:23;18.90;;;13.90;;
16504;SDS011;8365;51.030;4.696;2023-09-30T06:41:54;22.47;;;15.10;;
16504;SDS011;8365;51.030;4.696;2023-09-30T06:44:24;22.67;;;16.00;;
16504;SDS011;8365;51.030;4.696;2023-09-30T06:46:55;24.70;;;15.50;;
16504;SDS011;8365;51.030;4.696;2023-09-30T06:49:25;22.87;;;16.00;;
16504;SDS011;8365;51.030;4.696;2023-09-30T06:51:56;25.03;;;17.23;;
16504;SDS011;8365;51.030;4.696;2023-09-30T06:54:30;29.83;;;18.13;;
16504;SDS011;8365;51.030;4.696;2023-09-30T06:57:01;26.90;;;18.57;;
16504;SDS011;8365;51.030;4.696;2023-09-30T06:59:32;25.03;;;18.83;;
16504;SDS011;8365;51.030;4.696;2023-09-30T07:02:02;27.03;;;17.17;;
16504;SDS011;8365;51.030;4.696;2023-09-30T07:04:33;28.27;;;19.87;;
16504;SDS011;8365;51.030;4.696;2023-09-30T07:07:03;36.03;;;20.00;;
16504;SDS011;8365;51.030;4.696;2023-09-30T07:09:34;28.17;;;19.00;;
16504;SDS011;8365;51.030;4.696;2023-09-30T07:12:04;29.03;;;20.30;;
16504;SDS011;8365;51.030;4.696;2023-09-30T07:14:35;33.50;;;20.50;;
16504;SDS011;8365;51.030;4.696;2023-09-30T07:17:06;32.67;;;20.07;;
16504;SDS011;8365;51.030;4.696;2023-09-30T07:19:36;32.87;;;19.17;;
16504;SDS011;8365;51.030;4.696;2023-09-30T07:22:07;31.73;;;20.77;;
16504;SDS011;8365;51.030;4.696;2023-09-30T07:24:37;28.83;;;20.27;;
16504;SDS011;8365;51.030;4.696;2023-09-30T07:27:09;28.03;;;18.37;;
16504;SDS011;8365;51.030;4.696;2023-09-30T07:29:40;28.87;;;19.07;;
16504;SDS011;8365;51.030;4.696;2023-09-30T07:32:10;23.03;;;15.50;;
16504;SDS011;8365;51.030;4.696;2023-09-30T07:34:40;28.73;;;16.53;;
16504;SDS011;8365;51.030;4.696;2023-09-30T07:37:11;24.10;;;15.33;;
16504;SDS011;8365;51.030;4.696;2023-09-30T07:39:44;27.07;;;14.17;;
16504;SDS011;8365;51.030;4.696;2023-09-30T07:42:15;22.37;;;14.80;;
16504;SDS011;8365;51.030;4.696;2023-09-30T07:44:47;24.07;;;14.00;;
16504;SDS011;8365;51.030;4.696;2023-09-30T07:47:17;21.57;;;13.30;;
16504;SDS011;8365;51.030;4.696;2023-09-30T07:49:48;21.93;;;13.27;;
16504;SDS011;8365;51.030;4.696;2023-09-30T07:52:18;20.07;;;12.77;;
16504;SDS011;8365;51.030;4.696;2023-09-30T07:54:48;19.83;;;12.70;;
16504;SDS011;8365;51.030;4.696;2023-09-30T07:57:21;19.20;;;12.83;;
16504;SDS011;8365;51.030;4.696;2023-09-30T07:59:54;17.27;;;11.53;;
16504;SDS011;8365;51.030;4.696;2023-09-30T08:02:25;20.13;;;12.30;;
16504;SDS011;8365;51.030;4.696;2023-09-30T08:05:03;15.73;;;11.20;;
16504;SDS011;8365;51.030;4.696;2023-09-30T08:07:36;20.87;;;12.13;;
16504;SDS011;8365;51.030;4.696;2023-09-30T08:10:09;22.17;;;12.57;;
16504;SDS011;8365;51.030;4.696;2023-09-30T08:12:43;20.03;;;12.73;;
16504;SDS011;8365;51.030;4.696;2023-09-30T08:15:18;16.57;;;11.43;;
16504;SDS011;8365;51.030;4.696;2023-09-30T08:17:49;18.58;;;11.18;;
16504;SDS011;8365;51.030;4.696;2023-09-30T08:20:19;19.80;;;11.33;;
16504;SDS011;8365;51.030;4.696;2023-09-30T08:22:49;16.87;;;11.13;;
16504;SDS011;8365;51.030;4.696;2023-09-30T08:25:20;18.07;;;11.87;;
16504;SDS011;8365;51.030;4.696;2023-09-30T08:27:50;21.42;;;11.52;;
16504;SDS011;8365;51.030;4.696;2023-09-30T08:30:21;23.75;;;12.00;;
16504;SDS011;8365;51.030;4.696;2023-09-30T08:32:51;20.75;;;10.85;;
16504;SDS011;8365;51.030;4.696;2023-09-30T08:35:22;18.38;;;10.40;;
16504;SDS011;8365;51.030;4.696;2023-09-30T08:37:52;18.80;;;11.10;;
16504;SDS011;8365;51.030;4.696;2023-09-30T08:40:23;17.50;;;10.80;;
16504;SDS011;8365;51.030;4.696;2023-09-30T08:42:53;16.48;;;11.23;;
16504;SDS011;8365;51.030;4.696;2023-09-30T08:45:24;26.02;;;11.35;;
16504;SDS011;8365;51.030;4.696;2023-09-30T08:47:57;15.73;;;10.30;;
16504;SDS011;8365;51.030;4.696;2023-09-30T08:50:35;15.70;;;10.48;;
16504;SDS011;8365;51.030;4.696;2023-09-30T08:53:09;14.70;;;9.88;;
16504;SDS011;8365;51.030;4.696;2023-09-30T08:55:45;12.65;;;8.75;;
16504;SDS011;8365;51.030;4.696;2023-09-30T08:58:16;18.17;;;9.20;;
16504;SDS011;8365;51.030;4.696;2023-09-30T09:00:47;15.30;;;9.02;;
16504;SDS011;8365;51.030;4.696;2023-09-30T09:03:19;17.15;;;9.10;;
16504;SDS011;8365;51.030;4.696;2023-09-30T09:05:56;13.20;;;8.23;;
16504;SDS011;8365;51.030;4.696;2023-09-30T09:08:27;19.70;;;9.00;;
16504;SDS011;8365;51.030;4.696;2023-09-30T09:10:58;16.05;;;9.60;;
16504;SDS011;8365;51.030;4.696;2023-09-30T09:13:44;16.92;;;8.25;;
16504;SDS011;8365;51.030;4.696;2023-09-30T09:16:19;16.42;;;7.50;;
16504;SDS011;8365;51.030;4.696;2023-09-30T09:18:49;13.13;;;6.90;;
16504;SDS011;8365;51.030;4.696;2023-09-30T09:21:21;16.77;;;8.48;;
16504;SDS011;8365;51.030;4.696;2023-09-30T09:23:57;14.55;;;7.00;;
16504;SDS011;8365;51.030;4.696;2023-09-30T09:26:31;10.80;;;6.78;;
16504;SDS011;8365;51.030;4.696;2023-09-30T09:29:04;14.35;;;6.63;;
16504;SDS011;8365;51.030;4.696;2023-09-30T09:31:35;12.02;;;6.40;;
16504;SDS011;8365;51.030;4.696;2023-09-30T09:34:13;12.90;;;6.88;;
16504;SDS011;8365;51.030;4.696;2023-09-30T09:36:44;13.25;;;6.65;;
16504;SDS011;8365;51.030;4.696;2023-09-30T09:39:20;12.52;;;6.53;;
16504;SDS011;8365;51.030;4.696;2023-09-30T09:42:00;13.77;;;6.95;;
16504;SDS011;8365;51.030;4.696;2023-09-30T09:44:33;10.70;;;6.38;;
16504;SDS011;8365;51.030;4.696;2023-09-30T09:47:06;15.63;;;7.13;;
16504;SDS011;8365;51.030;4.696;2023-09-30T09:49:37;12.98;;;6.68;;
16504;SDS011;8365;51.030;4.696;2023-09-30T09:52:08;12.30;;;5.80;;
16504;SDS011;8365;51.030;4.696;2023-09-30T09:54:42;9.95;;;5.85;;
16504;SDS011;8365;51.030;4.696;2023-09-30T09:57:14;10.32;;;5.40;;
16504;SDS011;8365;51.030;4.696;2023-09-30T09:59:47;12.63;;;5.60;;
16504;SDS011;8365;51.030;4.696;2023-09-30T10:02:18;16.00;;;5.80;;
16504;SDS011;8365;51.030;4.696;2023-09-30T10:04:49;10.98;;;5.95;;
16504;SDS011;8365;51.030;4.696;2023-09-30T10:07:25;9.90;;;4.85;;
16504;SDS011;8365;51.030;4.696;2023-09-30T10:09:58;12.77;;;4.93;;
16504;SDS011;8365;51.030;4.696;2023-09-30T10:12:40;12.95;;;5.25;;
16504;SDS011;8365;51.030;4.696;2023-09-30T10:18:10;9.98;;;4.25;;
16504;SDS011;8365;51.030;4.696;2023-09-30T10:20:42;12.13;;;4.85;;
16504;SDS011;8365;51.030;4.696;2023-09-30T10:26:14;10.88;;;5.03;;
16504;SDS011;8365;51.030;4.696;2023-09-30T10:28:48;9.70;;;4.75;;
16504;SDS011;8365;51.030;4.696;2023-09-30T10:31:22;9.07;;;4.65;;
16504;SDS011;8365;51.030;4.696;2023-09-30T10:36:33;7.63;;;4.22;;
16504;SDS011;8365;51.030;4.696;2023-09-30T10:39:06;10.85;;;4.47;;
16504;SDS011;8365;51.030;4.696;2023-09-30T10:46:52;9.73;;;3.80;;
16504;SDS011;8365;51.030;4.696;2023-09-30T10:51:54;6.55;;;4.03;;
16504;SDS011;8365;51.030;4.696;2023-09-30T10:54:27;7.85;;;4.10;;
16504;SDS011;8365;51.030;4.696;2023-09-30T10:56:59;6.90;;;4.25;;
16504;SDS011;8365;51.030;4.696;2023-09-30T10:59:31;6.25;;;3.38;;
16504;SDS011;8365;51.030;4.696;2023-09-30T11:02:02;7.78;;;4.15;;
16504;SDS011;8365;51.030;4.696;2023-09-30T11:04:54;8.55;;;4.28;;
16504;SDS011;8365;51.030;4.696;2023-09-30T11:07:24;5.85;;;3.95;;
16504;SDS011;8365;51.030;4.696;2023-09-30T11:09:56;5.47;;;3.75;;
16504;SDS011;8365;51.030;4.696;2023-09-30T11:12:30;7.90;;;4.10;;
16504;SDS011;8365;51.030;4.696;2023-09-30T11:15:01;6.95;;;4.05;;
16504;SDS011;8365;51.030;4.696;2023-09-30T11:17:33;7.35;;;4.10;;
16504;SDS011;8365;51.030;4.696;2023-09-30T11:20:03;7.38;;;3.65;;
16504;SDS011;8365;51.030;4.696;2023-09-30T11:22:36;5.47;;;3.30;;
16504;SDS011;8365;51.030;4.696;2023-09-30T11:25:13;6.38;;;3.47;;
16504;SDS011;8365;51.030;4.696;2023-09-30T11:27:46;5.32;;;3.65;;
16504;SDS011;8365;51.030;4.696;2023-09-30T11:30:16;9.13;;;4.05;;
16504;SDS011;8365;51.030;4.696;2023-09-30T11:32:47;8.18;;;3.60;;
16504;SDS011;8365;51.030;4.696;2023-09-30T11:35:28;6.53;;;3.25;;
16504;SDS011;8365;51.030;4.696;2023-09-30T11:37:58;9.02;;;3.90;;
16504;SDS011;8365;51.030;4.696;2023-09-30T11:40:29;6.63;;;3.88;;
16504;SDS011;8365;51.030;4.696;2023-09-30T11:43:06;4.97;;;3.10;;
16504;SDS011;8365;51.030;4.696;2023-09-30T11:45:38;7.15;;;3.65;;
16504;SDS011;8365;51.030;4.696;2023-09-30T11:48:21;8.65;;;3.42;;
16504;SDS011;8365;51.030;4.696;2023-09-30T11:50:51;6.30;;;3.33;;
16504;SDS011;8365;51.030;4.696;2023-09-30T11:53:22;8.25;;;3.50;;
16504;SDS011;8365;51.030;4.696;2023-09-30T11:55:54;8.02;;;3.55;;
16504;SDS011;8365;51.030;4.696;2023-09-30T11:58:26;8.77;;;4.20;;
16504;SDS011;8365;51.030;4.696;2023-09-30T12:00:57;8.07;;;3.40;;
16504;SDS011;8365;51.030;4.696;2023-09-30T12:03:29;5.38;;;3.63;;
16504;SDS011;8365;51.030;4.696;2023-09-30T12:06:00;7.13;;;3.50;;
16504;SDS011;8365;51.030;4.696;2023-09-30T12:08:30;9.63;;;3.83;;
16504;SDS011;8365;51.030;4.696;2023-09-30T12:11:02;8.20;;;3.60;;
16504;SDS011;8365;51.030;4.696;2023-09-30T12:13:32;5.72;;;3.10;;
16504;SDS011;8365;51.030;4.696;2023-09-30T12:16:02;10.35;;;4.07;;
16504;SDS011;8365;51.030;4.696;2023-09-30T12:18:33;5.45;;;3.35;;
16504;SDS011;8365;51.030;4.696;2023-09-30T12:21:04;9.18;;;3.60;;
16504;SDS011;8365;51.030;4.696;2023-09-30T12:23:37;7.00;;;3.45;;
16504;SDS011;8365;51.030;4.696;2023-09-30T12:26:07;7.93;;;3.78;;
16504;SDS011;8365;51.030;4.696;2023-09-30T12:28:38;7.18;;;3.60;;
16504;SDS011;8365;51.030;4.696;2023-09-30T12:31:10;9.02;;;6.90;;
16504;SDS011;8365;51.030;4.696;2023-09-30T12:33:41;5.88;;;3.30;;
16504;SDS011;8365;51.030;4.696;2023-09-30T12:36:11;8.52;;;3.70;;
16504;SDS011;8365;51.030;4.696;2023-09-30T12:38:43;6.07;;;3.58;;
16504;SDS011;8365;51.030;4.696;2023-09-30T12:41:14;7.65;;;3.42;;
16504;SDS011;8365;51.030;4.696;2023-09-30T12:43:49;7.78;;;3.22;;
16504;SDS011;8365;51.030;4.696;2023-09-30T12:46:19;6.05;;;3.25;;
16504;SDS011;8365;51.030;4.696;2023-09-30T12:48:50;7.18;;;3.35;;
16504;SDS011;8365;51.030;4.696;2023-09-30T12:51:21;6.60;;;3.30;;
16504;SDS011;8365;51.030;4.696;2023-09-30T12:53:54;6.53;;;3.47;;
16504;SDS011;8365;51.030;4.696;2023-09-30T12:56:25;5.70;;;3.38;;
16504;SDS011;8365;51.030;4.696;2023-09-30T12:58:56;5.82;;;3.47;;
16504;SDS011;8365;51.030;4.696;2023-09-30T13:01:28;6.95;;;3.55;;
16504;SDS011;8365;51.030;4.696;2023-09-30T13:03:58;7.00;;;3.58;;
16504;SDS011;8365;51.030;4.696;2023-09-30T13:06:31;7.00;;;3.42;;
16504;SDS011;8365;51.030;4.696;2023-09-30T13:09:05;8.15;;;3.97;;
16504;SDS011;8365;51.030;4.696;2023-09-30T13:11:35;5.65;;;3.42;;
16504;SDS011;8365;51.030;4.696;2023-09-30T13:14:06;8.55;;;3.55;;
16504;SDS011;8365;51.030;4.696;2023-09-30T13:16:36;7.50;;;4.03;;
16504;SDS011;8365;51.030;4.696;2023-09-30T13:19:07;5.85;;;3.60;;
16504;SDS011;8365;51.030;4.696;2023-09-30T13:21:38;5.65;;;3.20;;
16504;SDS011;8365;51.030;4.696;2023-09-30T13:24:08;5.85;;;3.60;;
16504;SDS011;8365;51.030;4.696;2023-09-30T13:26:40;5.88;;;3.80;;
16504;SDS011;8365;51.030;4.696;2023-09-30T13:29:10;6.97;;;3.35;;
16504;SDS011;8365;51.030;4.696;2023-09-30T13:31:42;8.77;;;3.58;;
16504;SDS011;8365;51.030;4.696;2023-09-30T13:34:13;9.55;;;3.75;;
16504;SDS011;8365;51.030;4.696;2023-09-30T13:36:44;8.65;;;4.00;;
16504;SDS011;8365;51.030;4.696;2023-09-30T13:39:14;4.68;;;3.25;;
16504;SDS011;8365;51.030;4.696;2023-09-30T13:41:47;8.07;;;3.60;;
16504;SDS011;8365;51.030;4.696;2023-09-30T13:44:17;7.45;;;3.97;;
16504;SDS011;8365;51.030;4.696;2023-09-30T13:46:48;5.70;;;3.50;;
16504;SDS011;8365;51.030;4.696;2023-09-30T13:49:19;7.53;;;3.92;;
16504;SDS011;8365;51.030;4.696;2023-09-30T13:51:49;5.13;;;3.30;;
16504;SDS011;8365;51.030;4.696;2023-09-30T13:54:19;7.20;;;3.35;;
16504;SDS011;8365;51.030;4.696;2023-09-30T13:56:50;8.35;;;3.92;;
16504;SDS011;8365;51.030;4.696;2023-09-30T13:59:20;6.18;;;3.70;;
16504;SDS011;8365;51.030;4.696;2023-09-30T14:01:51;6.03;;;3.50;;
16504;SDS011;8365;51.030;4.696;2023-09-30T14:04:24;7.13;;;3.92;;
16504;SDS011;8365;51.030;4.696;2023-09-30T14:06:54;7.00;;;3.63;;
16504;SDS011;8365;51.030;4.696;2023-09-30T14:09:26;5.82;;;3.17;;
16504;SDS011;8365;51.030;4.696;2023-09-30T14:11:57;7.43;;;3.55;;
16504;SDS011;8365;51.030;4.696;2023-09-30T14:14:28;5.18;;;3.47;;
16504;SDS011;8365;51.030;4.696;2023-09-30T14:16:59;9.88;;;3.70;;
16504;SDS011;8365;51.030;4.696;2023-09-30T14:19:29;5.78;;;3.40;;
16504;SDS011;8365;51.030;4.696;2023-09-30T14:22:00;7.70;;;3.42;;
16504;SDS011;8365;51.030;4.696;2023-09-30T14:24:32;6.43;;;3.58;;
16504;SDS011;8365;51.030;4.696;2023-09-30T14:27:06;6.35;;;3.28;;
16504;SDS011;8365;51.030;4.696;2023-09-30T14:29:37;6.18;;;3.53;;
16504;SDS011;8365;51.030;4.696;2023-09-30T14:32:07;7.18;;;3.50;;
16504;SDS011;8365;51.030;4.696;2023-09-30T14:34:38;5.30;;;3.17;;
16504;SDS011;8365;51.030;4.696;2023-09-30T14:37:08;9.52;;;3.92;;
16504;SDS011;8365;51.030;4.696;2023-09-30T14:39:39;6.68;;;3.65;;
16504;SDS011;8365;51.030;4.696;2023-09-30T14:42:10;6.45;;;3.60;;
16504;SDS011;8365;51.030;4.696;2023-09-30T14:44:40;6.10;;;3.38;;
16504;SDS011;8365;51.030;4.696;2023-09-30T14:47:11;7.35;;;3.65;;
16504;SDS011;8365;51.030;4.696;2023-09-30T14:49:42;4.82;;;3.42;;
16504;SDS011;8365;51.030;4.696;2023-09-30T14:52:15;4.78;;;2.95;;
16504;SDS011;8365;51.030;4.696;2023-09-30T14:54:46;5.47;;;3.15;;
16504;SDS011;8365;51.030;4.696;2023-09-30T14:57:16;5.90;;;3.17;;
16504;SDS011;8365;51.030;4.696;2023-09-30T14:59:49;6.05;;;3.03;;
16504;SDS011;8365;51.030;4.696;2023-09-30T15:02:20;7.07;;;3.70;;
16504;SDS011;8365;51.030;4.696;2023-09-30T15:04:50;5.60;;;3.58;;
16504;SDS011;8365;51.030;4.696;2023-09-30T15:07:21;5.60;;;3.15;;
16504;SDS011;8365;51.030;4.696;2023-09-30T15:09:52;4.75;;;3.17;;
16504;SDS011;8365;51.030;4.696;2023-09-30T15:12:24;7.32;;;3.80;;
16504;SDS011;8365;51.030;4.696;2023-09-30T15:14:55;7.40;;;3.22;;
16504;SDS011;8365;51.030;4.696;2023-09-30T15:17:26;6.40;;;3.50;;
16504;SDS011;8365;51.030;4.696;2023-09-30T15:19:59;6.22;;;3.30;;
16504;SDS011;8365;51.030;4.696;2023-09-30T15:22:32;5.53;;;3.22;;
16504;SDS011;8365;51.030;4.696;2023-09-30T15:25:03;5.80;;;3.33;;
16504;SDS011;8365;51.030;4.696;2023-09-30T15:27:34;5.97;;;2.88;;
16504;SDS011;8365;51.030;4.696;2023-09-30T15:30:06;8.00;;;3.40;;
16504;SDS011;8365;51.030;4.696;2023-09-30T15:32:38;8.32;;;3.40;;